createdAt,value
2023-03-15T00:01:20.954Z,13.10
2023-03-15T00:03:48.197Z,13.10
2023-03-15T00:06:15.446Z,13.10
2023-03-15T00:08:42.272Z,13.20
2023-03-15T00:11:09.023Z,13.10
2023-03-15T00:13:35.794Z,13.10
2023-03-15T00:16:05.674Z,13.10
2023-03-15T00:18:32.648Z,13.10
2023-03-15T00:20:59.477Z,13.10
2023-03-15T00:23:26.562Z,13.10
2023-03-15T00:25:54.098Z,13.10
2023-03-15T00:28:21.136Z,13.10
2023-03-15T00:30:48.082Z,13.10
2023-03-15T00:33:15.879Z,13.10
2023-03-15T00:35:44.893Z,13.10
2023-03-15T00:38:12.218Z,13.10
2023-03-15T00:40:39.346Z,13.10
2023-03-15T00:43:06.206Z,13.10
2023-03-15T00:45:33.385Z,13.10
2023-03-15T00:50:48.922Z,13.10
2023-03-15T00:53:15.776Z,13.00
2023-03-15T00:55:42.728Z,12.80
2023-03-15T00:58:09.571Z,12.70
2023-03-15T01:00:38.319Z,12.50
2023-03-15T01:03:05.253Z,12.30
2023-03-15T01:05:32.057Z,12.20
2023-03-15T01:07:58.827Z,11.90
2023-03-15T01:10:25.776Z,11.50
2023-03-15T01:12:52.683Z,11.20
2023-03-15T01:15:19.537Z,10.90
2023-03-15T01:17:46.445Z,10.80
2023-03-15T01:20:14.712Z,10.70
2023-03-15T01:22:41.673Z,10.50
2023-03-15T01:25:09.446Z,10.40
2023-03-15T01:27:36.496Z,10.20
2023-03-15T01:30:03.569Z,10.00
2023-03-15T01:32:30.357Z,9.60
2023-03-15T01:34:57.491Z,9.60
2023-03-15T01:37:24.812Z,9.50
2023-03-15T01:39:51.737Z,9.50
2023-03-15T01:42:18.814Z,9.40
2023-03-15T01:45:02.103Z,9.40
2023-03-15T01:47:29.198Z,9.30
2023-03-15T01:50:05.969Z,9.10
2023-03-15T01:52:37.269Z,9.10
2023-03-15T01:55:11.308Z,9.10
2023-03-15T01:57:46.630Z,9.00
2023-03-15T02:00:16.720Z,9.10
2023-03-15T02:02:53.170Z,8.90
2023-03-15T02:05:30.180Z,8.80
2023-03-15T02:07:57.257Z,8.90
2023-03-15T02:10:31.334Z,8.90
2023-03-15T02:12:59.774Z,9.00
2023-03-15T02:15:27.104Z,9.00
2023-03-15T02:17:53.988Z,8.90
2023-03-15T02:20:44.886Z,8.60
2023-03-15T02:23:15.226Z,8.60
2023-03-15T02:26:04.046Z,8.60
2023-03-15T02:28:31.397Z,8.60
2023-03-15T02:30:58.650Z,8.60
2023-03-15T02:33:44.822Z,8.70
2023-03-15T02:36:22.063Z,8.80
2023-03-15T02:38:49.917Z,8.90
2023-03-15T02:41:30.682Z,8.80
2023-03-15T02:44:05.544Z,8.90
2023-03-15T02:46:32.746Z,8.80
2023-03-15T02:49:00.714Z,8.80
2023-03-15T02:51:29.776Z,8.90
2023-03-15T02:53:56.780Z,9.00
2023-03-15T02:56:24.601Z,8.50
2023-03-15T02:58:51.439Z,8.50
2023-03-15T03:01:19.034Z,8.60
2023-03-15T03:03:47.131Z,8.60
2023-03-15T03:06:15.475Z,8.40
2023-03-15T03:08:47.123Z,8.40
2023-03-15T03:11:15.148Z,8.60
2023-03-15T03:13:42.577Z,8.60
2023-03-15T03:16:09.815Z,8.60
2023-03-15T03:18:38.078Z,8.80
2023-03-15T03:21:07.076Z,8.90
2023-03-15T03:23:35.504Z,8.90
2023-03-15T03:26:03.448Z,8.90
2023-03-15T03:28:33.261Z,8.60
2023-03-15T03:31:00.493Z,8.70
2023-03-15T03:33:27.344Z,8.70
2023-03-15T03:35:54.459Z,8.70
2023-03-15T03:38:21.317Z,8.80
2023-03-15T03:40:48.308Z,8.70
2023-03-15T03:43:15.057Z,8.80
2023-03-15T03:45:42.050Z,9.00
2023-03-15T03:48:09.094Z,9.00
2023-03-15T03:50:35.896Z,9.10
2023-03-15T03:53:02.692Z,9.10
2023-03-15T03:55:29.492Z,9.20
2023-03-15T03:57:56.574Z,9.10
2023-03-15T04:00:23.658Z,9.10
2023-03-15T04:02:54.205Z,9.20
2023-03-15T04:05:21.589Z,9.20
2023-03-15T04:07:48.411Z,9.20
2023-03-15T04:10:15.450Z,9.10
2023-03-15T04:12:46.115Z,9.10
2023-03-15T04:15:12.994Z,9.00
2023-03-15T04:17:40.049Z,9.00
2023-03-15T04:20:10.428Z,9.10
2023-03-15T04:22:37.601Z,9.00
2023-03-15T04:25:04.705Z,9.00
2023-03-15T04:27:31.587Z,9.00
2023-03-15T04:29:58.502Z,9.10
2023-03-15T04:32:25.426Z,9.00
2023-03-15T04:34:52.217Z,9.00
2023-03-15T04:37:19.578Z,9.10
2023-03-15T04:39:46.395Z,9.10
2023-03-15T04:42:13.180Z,9.10
2023-03-15T04:44:40.017Z,9.00
2023-03-15T04:47:06.916Z,9.00
2023-03-15T04:49:33.886Z,8.90
2023-03-15T04:52:01.183Z,8.80
2023-03-15T04:54:28.099Z,8.80
2023-03-15T04:56:54.885Z,8.90
2023-03-15T04:59:21.981Z,8.90
2023-03-15T05:01:49.144Z,8.90
2023-03-15T05:04:16.473Z,8.90
2023-03-15T05:06:43.346Z,8.90
2023-03-15T05:09:19.336Z,8.80
2023-03-15T05:11:46.865Z,8.80
2023-03-15T05:14:14.199Z,8.80
2023-03-15T05:16:41.159Z,8.80
2023-03-15T05:19:08.114Z,8.80
2023-03-15T05:21:34.989Z,8.80
2023-03-15T05:24:02.204Z,8.80
2023-03-15T05:26:29.016Z,8.70
2023-03-15T05:28:55.890Z,8.80
2023-03-15T05:31:22.834Z,8.90
2023-03-15T05:33:54.532Z,8.90
2023-03-15T05:36:21.751Z,8.90
2023-03-15T05:38:48.674Z,8.80
2023-03-15T05:41:18.135Z,8.70
2023-03-15T05:43:45.321Z,8.70
2023-03-15T05:46:12.223Z,8.60
2023-03-15T05:48:39.134Z,8.60
2023-03-15T05:51:06.082Z,8.60
2023-03-15T05:53:33.133Z,8.50
2023-03-15T05:56:00.773Z,8.50
2023-03-15T05:58:27.897Z,8.60
2023-03-15T06:00:54.861Z,8.60
2023-03-15T06:03:21.668Z,8.60
2023-03-15T06:05:48.736Z,8.70
2023-03-15T06:08:15.670Z,8.80
2023-03-15T06:10:42.474Z,8.80
2023-03-15T06:13:09.398Z,8.80
2023-03-15T06:15:36.172Z,8.90
2023-03-15T06:18:03.017Z,8.90
2023-03-15T06:20:29.880Z,8.80
2023-03-15T06:22:56.642Z,8.80
2023-03-15T06:25:23.708Z,8.80
2023-03-15T06:27:51.227Z,8.70
2023-03-15T06:30:18.162Z,8.60
2023-03-15T06:32:45.064Z,8.60
2023-03-15T06:35:11.953Z,8.60
2023-03-15T06:37:39.331Z,8.60
2023-03-15T06:40:07.978Z,8.60
2023-03-15T06:42:35.405Z,8.60
2023-03-15T06:45:03.455Z,8.60
2023-03-15T06:47:30.291Z,8.40
2023-03-15T06:49:57.137Z,8.40
2023-03-15T06:52:24.450Z,8.50
2023-03-15T06:54:51.304Z,8.50
2023-03-15T06:57:18.249Z,8.50
2023-03-15T06:59:45.564Z,8.50
2023-03-15T07:02:17.876Z,8.50
2023-03-15T07:04:44.879Z,8.50
2023-03-15T07:07:12.909Z,8.50
2023-03-15T07:09:39.880Z,8.50
2023-03-15T07:12:07.693Z,8.60
2023-03-15T07:14:34.828Z,8.60
2023-03-15T07:17:01.701Z,8.60
2023-03-15T07:19:28.519Z,8.50
2023-03-15T07:21:55.257Z,8.60
2023-03-15T07:24:22.044Z,8.50
2023-03-15T07:26:48.915Z,8.50
2023-03-15T07:29:15.727Z,8.40
2023-03-15T07:31:42.552Z,8.40
2023-03-15T07:34:09.448Z,8.40
2023-03-15T07:36:36.240Z,8.30
2023-03-15T07:39:03.098Z,8.40
2023-03-15T07:41:29.880Z,8.40
2023-03-15T07:43:58.560Z,8.50
2023-03-15T07:46:25.616Z,8.50
2023-03-15T07:48:52.428Z,8.50
2023-03-15T07:51:19.231Z,8.50
2023-03-15T07:53:46.065Z,8.50
2023-03-15T07:56:12.828Z,8.40
2023-03-15T07:58:39.587Z,8.40
2023-03-15T08:01:06.409Z,8.40
2023-03-15T08:03:33.343Z,8.30
2023-03-15T08:06:00.162Z,8.30
2023-03-15T08:08:27.362Z,8.20
2023-03-15T08:10:55.881Z,8.10
2023-03-15T08:13:22.672Z,8.00
2023-03-15T08:15:49.521Z,8.10
2023-03-15T08:18:16.499Z,8.30
2023-03-15T08:20:43.327Z,8.50
2023-03-15T08:23:10.341Z,8.60
2023-03-15T08:25:41.169Z,8.60
2023-03-15T08:28:08.169Z,8.60
2023-03-15T08:30:35.160Z,8.50
2023-03-15T08:33:02.053Z,8.60
2023-03-15T08:35:28.950Z,8.70
2023-03-15T08:37:55.835Z,8.70
2023-03-15T08:40:25.449Z,8.70
2023-03-15T08:42:53.430Z,8.70
2023-03-15T08:45:20.784Z,8.70
2023-03-15T08:47:47.533Z,8.70
2023-03-15T08:50:16.055Z,8.80
2023-03-15T08:52:43.944Z,8.80
2023-03-15T08:55:14.386Z,8.80
2023-03-15T08:57:41.698Z,8.80
2023-03-15T09:00:10.402Z,8.90
2023-03-15T09:02:37.723Z,8.90
2023-03-15T09:05:07.167Z,9.00
2023-03-15T09:07:34.487Z,9.00
2023-03-15T09:10:04.068Z,9.00
2023-03-15T09:12:32.071Z,8.90
2023-03-15T09:14:58.817Z,8.80
2023-03-15T09:17:25.601Z,8.80
2023-03-15T09:19:52.616Z,8.90
2023-03-15T09:22:34.764Z,9.00
2023-03-15T09:25:05.652Z,9.10
2023-03-15T09:27:32.564Z,9.10
2023-03-15T09:29:59.860Z,9.20
2023-03-15T09:32:26.957Z,9.20
2023-03-15T09:34:53.846Z,9.30
2023-03-15T09:37:21.932Z,9.30
2023-03-15T09:39:48.937Z,9.20
2023-03-15T09:42:39.155Z,9.10
2023-03-15T09:45:19.292Z,8.90
2023-03-15T09:47:49.132Z,8.80
2023-03-15T09:50:27.310Z,8.90
2023-03-15T09:53:26.710Z,9.00
2023-03-15T09:55:54.088Z,9.10
2023-03-15T09:58:26.967Z,9.10
2023-03-15T10:00:58.114Z,9.10
2023-03-15T10:03:38.442Z,9.10
2023-03-15T10:06:22.842Z,9.10
2023-03-15T10:08:54.669Z,9.10
2023-03-15T10:11:45.691Z,9.20
2023-03-15T10:14:30.824Z,9.20
2023-03-15T10:16:57.617Z,9.30
2023-03-15T10:19:54.795Z,9.20
2023-03-15T10:22:41.910Z,9.00
2023-03-15T10:25:29.826Z,8.90
2023-03-15T10:28:01.171Z,9.00
2023-03-15T10:30:31.019Z,8.90
2023-03-15T10:33:02.580Z,8.80
2023-03-15T10:35:30.150Z,8.80
2023-03-15T10:37:56.957Z,8.80
2023-03-15T10:40:47.128Z,8.70
2023-03-15T10:43:32.502Z,8.70
2023-03-15T10:46:00.156Z,8.80
2023-03-15T10:48:33.145Z,8.90
2023-03-15T10:51:15.884Z,9.00
2023-03-15T10:54:11.855Z,9.00
2023-03-15T10:56:48.569Z,9.10
2023-03-15T10:59:24.790Z,9.20
2023-03-15T11:01:53.997Z,9.30
2023-03-15T11:04:32.532Z,9.30
2023-03-15T11:07:03.798Z,9.40
2023-03-15T11:09:53.651Z,9.40
2023-03-15T11:12:26.217Z,9.40
2023-03-15T11:15:03.238Z,9.30
2023-03-15T11:17:33.792Z,9.10
2023-03-15T11:20:16.590Z,9.20
2023-03-15T11:22:43.624Z,9.40
2023-03-15T11:25:18.038Z,9.40
2023-03-15T11:27:51.998Z,9.40
2023-03-15T11:30:21.509Z,9.50
2023-03-15T11:32:48.438Z,9.60
2023-03-15T11:35:37.245Z,9.60
2023-03-15T11:38:29.520Z,9.60
2023-03-15T11:40:58.791Z,9.70
2023-03-15T11:43:44.952Z,9.80
2023-03-15T11:46:37.998Z,9.90
2023-03-15T11:49:23.922Z,9.80
2023-03-15T11:51:51.011Z,9.80
2023-03-15T11:54:19.961Z,9.80
2023-03-15T11:57:01.562Z,9.90
2023-03-15T11:59:34.594Z,9.90
2023-03-15T12:02:10.561Z,9.90
2023-03-15T12:04:39.494Z,9.90
2023-03-15T12:07:15.480Z,9.90
2023-03-15T12:10:03.421Z,9.80
2023-03-15T12:12:30.274Z,9.80
2023-03-15T12:15:29.060Z,9.70
2023-03-15T12:18:06.336Z,9.80
2023-03-15T12:20:49.296Z,9.90
2023-03-15T12:23:19.063Z,9.90
2023-03-15T12:25:55.150Z,10.00
2023-03-15T12:28:35.767Z,10.10
2023-03-15T12:31:06.884Z,10.10
2023-03-15T12:33:45.530Z,10.00
2023-03-15T12:36:24.876Z,10.10
2023-03-15T12:39:00.938Z,10.00
2023-03-15T12:41:51.686Z,10.00
2023-03-15T12:44:24.668Z,10.00
2023-03-15T12:46:51.372Z,9.90
2023-03-15T12:49:24.057Z,9.90
2023-03-15T12:52:05.730Z,9.90
2023-03-15T12:55:11.999Z,9.90
2023-03-15T12:57:46.565Z,9.90
2023-03-15T13:00:18.752Z,10.00
2023-03-15T13:03:01.532Z,10.00
2023-03-15T13:06:03.857Z,10.00
2023-03-15T13:08:45.032Z,9.90
2023-03-15T13:11:30.871Z,9.80
2023-03-15T13:14:29.036Z,9.90
2023-03-15T13:17:19.101Z,9.90
2023-03-15T13:19:54.506Z,10.00
2023-03-15T13:22:27.259Z,9.90
2023-03-15T13:25:34.445Z,10.00
2023-03-15T13:28:22.607Z,10.00
2023-03-15T13:30:52.669Z,9.90
2023-03-15T13:33:32.169Z,9.90
2023-03-15T13:36:01.802Z,9.90
2023-03-15T13:38:39.720Z,10.00
2023-03-15T13:41:23.843Z,10.00
2023-03-15T13:43:53.523Z,10.00
2023-03-15T13:46:25.397Z,10.10
2023-03-15T13:48:54.127Z,10.10
2023-03-15T13:51:30.214Z,10.10
2023-03-15T13:54:27.755Z,10.00
2023-03-15T13:57:13.033Z,10.00
2023-03-15T13:59:57.174Z,10.00
2023-03-15T14:02:35.074Z,9.80
2023-03-15T14:05:15.099Z,9.80
2023-03-15T14:07:48.550Z,9.80
2023-03-15T14:10:33.577Z,9.90
2023-03-15T14:13:43.476Z,10.00
2023-03-15T14:16:16.486Z,9.90
2023-03-15T14:18:43.345Z,10.00
2023-03-15T14:21:17.472Z,10.00
2023-03-15T14:23:47.079Z,10.00
2023-03-15T14:26:34.896Z,10.00
2023-03-15T14:29:13.457Z,10.00
2023-03-15T14:31:46.561Z,10.00
2023-03-15T14:34:25.232Z,10.00
2023-03-15T14:36:54.325Z,9.90
2023-03-15T14:39:41.978Z,9.90
2023-03-15T14:42:12.275Z,10.00
2023-03-15T14:44:39.143Z,10.00
2023-03-15T14:47:16.931Z,9.90
2023-03-15T14:49:43.928Z,9.80
2023-03-15T14:52:14.702Z,9.80
2023-03-15T14:54:48.265Z,9.80
2023-03-15T14:57:15.141Z,9.70
2023-03-15T14:59:42.002Z,9.70
2023-03-15T15:02:15.500Z,9.70
2023-03-15T15:04:43.890Z,9.80
2023-03-15T15:07:15.316Z,9.80
2023-03-15T15:09:49.984Z,9.80
2023-03-15T15:12:18.583Z,9.80
2023-03-15T15:14:45.376Z,9.80
2023-03-15T15:17:12.216Z,9.80
2023-03-15T15:19:39.057Z,9.70
2023-03-15T15:22:06.012Z,9.70
2023-03-15T15:24:32.798Z,9.60
2023-03-15T15:26:59.824Z,9.60
2023-03-15T15:29:26.832Z,9.60
2023-03-15T15:31:53.643Z,9.70
2023-03-15T15:34:20.717Z,9.60
2023-03-15T15:36:47.680Z,9.60
2023-03-15T15:39:21.997Z,9.60
2023-03-15T15:41:49.464Z,9.50
2023-03-15T15:44:18.658Z,9.50
2023-03-15T15:46:45.730Z,9.60
2023-03-15T15:49:12.726Z,9.40
2023-03-15T15:51:48.982Z,9.40
2023-03-15T15:54:18.409Z,9.40
2023-03-15T15:56:57.227Z,9.30
2023-03-15T15:59:27.449Z,9.30
2023-03-15T16:02:02.981Z,9.30
2023-03-15T16:04:30.335Z,9.20
2023-03-15T16:07:02.625Z,9.20
2023-03-15T16:09:31.487Z,9.20
2023-03-15T16:11:58.568Z,9.20
2023-03-15T16:14:25.458Z,9.20
2023-03-15T16:16:52.296Z,9.20
2023-03-15T16:19:19.243Z,9.20
2023-03-15T16:21:49.000Z,9.20
2023-03-15T16:24:15.766Z,9.30
2023-03-15T16:26:44.372Z,9.20
2023-03-15T16:29:17.869Z,9.10
2023-03-15T16:31:44.827Z,9.10
2023-03-15T16:34:12.814Z,9.10
2023-03-15T16:36:47.684Z,9.20
2023-03-15T16:39:16.113Z,9.30
2023-03-15T16:41:42.977Z,9.30
2023-03-15T16:44:18.473Z,9.20
2023-03-15T16:46:45.496Z,9.20
2023-03-15T16:49:15.345Z,9.00
2023-03-15T16:51:49.213Z,9.10
2023-03-15T16:54:27.282Z,9.10
2023-03-15T16:56:57.820Z,9.10
2023-03-15T16:59:25.162Z,9.10
2023-03-15T17:01:52.029Z,9.00
2023-03-15T17:04:18.922Z,9.00
2023-03-15T17:06:46.682Z,9.00
2023-03-15T17:09:22.102Z,9.00
2023-03-15T17:11:51.292Z,9.00
2023-03-15T17:14:29.335Z,8.90
2023-03-15T17:16:56.192Z,8.90
2023-03-15T17:19:23.325Z,8.80
2023-03-15T17:21:51.392Z,8.90
2023-03-15T17:24:18.407Z,8.90
2023-03-15T17:26:45.870Z,9.00
2023-03-15T17:29:16.406Z,9.00
2023-03-15T17:31:56.026Z,9.10
2023-03-15T17:34:25.001Z,9.00
2023-03-15T17:36:54.520Z,9.10
2023-03-15T17:39:42.900Z,9.10
2023-03-15T17:42:13.636Z,9.00
2023-03-15T17:44:41.109Z,9.00
2023-03-15T17:47:11.797Z,9.00
2023-03-15T17:49:38.959Z,8.90
2023-03-15T17:52:15.453Z,8.90
2023-03-15T17:54:42.373Z,8.80
2023-03-15T17:57:13.733Z,8.70
2023-03-15T17:59:40.595Z,8.70
2023-03-15T18:02:15.589Z,8.60
2023-03-15T18:04:42.575Z,8.60
2023-03-15T18:07:09.505Z,8.50
2023-03-15T18:09:36.374Z,8.50
2023-03-15T18:12:03.271Z,8.50
2023-03-15T18:14:31.053Z,8.40
2023-03-15T18:16:58.026Z,8.40
2023-03-15T18:19:25.455Z,8.40
2023-03-15T18:21:52.223Z,8.40
2023-03-15T18:24:19.456Z,8.30
2023-03-15T18:26:46.240Z,8.30
2023-03-15T18:29:13.011Z,8.20
2023-03-15T18:31:40.621Z,8.10
2023-03-15T18:34:07.568Z,8.10
2023-03-15T18:36:34.400Z,8.00
2023-03-15T18:39:01.311Z,7.90
2023-03-15T18:41:28.085Z,7.80
2023-03-15T18:43:54.915Z,7.80
2023-03-15T18:46:24.652Z,7.80
2023-03-15T18:48:55.832Z,7.80
2023-03-15T18:51:28.297Z,7.80
2023-03-15T18:53:55.834Z,7.70
2023-03-15T18:56:30.760Z,7.60
2023-03-15T18:58:57.545Z,7.60
2023-03-15T19:01:24.688Z,7.60
2023-03-15T19:03:52.890Z,7.50
2023-03-15T19:06:20.884Z,7.50
2023-03-15T19:08:53.243Z,7.50
2023-03-15T19:11:21.497Z,7.50
2023-03-15T19:13:51.413Z,7.50
2023-03-15T19:16:19.593Z,7.40
2023-03-15T19:18:46.730Z,7.30
2023-03-15T19:21:13.830Z,7.30
2023-03-15T19:23:40.729Z,7.30
2023-03-15T19:26:07.558Z,7.30
2023-03-15T19:28:34.413Z,7.20
2023-03-15T19:31:01.215Z,7.20
2023-03-15T19:33:28.056Z,7.10
2023-03-15T19:35:55.476Z,7.10
2023-03-15T19:38:22.297Z,7.10
2023-03-15T19:40:50.505Z,7.10
2023-03-15T19:43:18.544Z,7.10
2023-03-15T19:45:45.571Z,7.10
2023-03-15T19:48:12.424Z,7.10
2023-03-15T19:50:39.727Z,7.10
2023-03-15T19:53:06.600Z,7.20
2023-03-15T19:55:35.653Z,7.20
2023-03-15T19:58:02.479Z,7.20
2023-03-15T20:00:29.351Z,7.20
2023-03-15T20:02:56.422Z,7.20
2023-03-15T20:05:25.551Z,7.30
2023-03-15T20:07:53.162Z,7.30
2023-03-15T20:10:21.043Z,7.30
2023-03-15T20:12:48.156Z,7.30
2023-03-15T20:15:17.553Z,7.30
2023-03-15T20:17:44.949Z,7.30
2023-03-15T20:20:13.735Z,7.30
2023-03-15T20:22:43.448Z,7.30
2023-03-15T20:25:15.073Z,7.20
2023-03-15T20:27:42.118Z,7.20
2023-03-15T20:30:11.227Z,7.20
2023-03-15T20:32:38.255Z,7.10
2023-03-15T20:35:09.194Z,7.10
2023-03-15T20:37:39.787Z,7.00
2023-03-15T20:40:11.660Z,7.10
2023-03-15T20:42:39.172Z,7.10
2023-03-15T20:45:07.319Z,7.10
2023-03-15T20:47:34.605Z,7.10
2023-03-15T20:50:01.937Z,7.10
2023-03-15T20:52:28.917Z,7.10
2023-03-15T20:54:55.894Z,7.00
2023-03-15T20:57:22.802Z,6.90
2023-03-15T20:59:49.698Z,6.90
2023-03-15T21:02:17.014Z,6.80
2023-03-15T21:04:44.682Z,6.80
2023-03-15T21:07:11.942Z,6.70
2023-03-15T21:09:38.740Z,6.70
2023-03-15T21:12:06.935Z,6.70
2023-03-15T21:14:34.284Z,6.60
2023-03-15T21:17:01.901Z,6.60
2023-03-15T21:19:29.350Z,6.60
2023-03-15T21:21:57.170Z,6.60
2023-03-15T21:24:23.951Z,6.60
2023-03-15T21:26:54.702Z,6.70
2023-03-15T21:29:22.505Z,6.70
2023-03-15T21:31:49.469Z,6.80
2023-03-15T21:34:26.432Z,6.80
2023-03-15T21:36:53.245Z,6.80
2023-03-15T21:39:20.029Z,6.90
2023-03-15T21:41:46.790Z,6.90
2023-03-15T21:44:13.684Z,6.90
2023-03-15T21:46:40.673Z,6.90
2023-03-15T21:49:08.005Z,6.90
2023-03-15T21:51:34.766Z,6.90
2023-03-15T21:54:01.827Z,6.80
2023-03-15T21:56:28.906Z,6.90
2023-03-15T21:58:55.709Z,6.80
2023-03-15T22:01:25.315Z,6.80
2023-03-15T22:03:55.070Z,6.80
2023-03-15T22:06:22.594Z,6.80
2023-03-15T22:08:50.113Z,6.80
2023-03-15T22:11:16.985Z,6.90
2023-03-15T22:13:43.762Z,6.90
2023-03-15T22:16:11.649Z,6.90
2023-03-15T22:18:38.390Z,6.90
2023-03-15T22:21:05.310Z,6.90
2023-03-15T22:23:32.041Z,6.90
2023-03-15T22:25:58.767Z,6.90
2023-03-15T22:28:25.635Z,6.90
2023-03-15T22:30:52.997Z,6.90
2023-03-15T22:33:22.351Z,6.90
2023-03-15T22:35:58.873Z,6.90
2023-03-15T22:38:26.588Z,6.90
2023-03-15T22:41:01.785Z,6.90
2023-03-15T22:43:28.732Z,6.80
2023-03-15T22:45:55.551Z,6.80
2023-03-15T22:48:23.046Z,6.90
2023-03-15T22:51:02.920Z,6.90
2023-03-15T22:53:29.943Z,6.90
2023-03-15T22:55:57.282Z,6.90
2023-03-15T22:58:24.518Z,6.80
2023-03-15T23:00:51.851Z,6.80
2023-03-15T23:03:19.241Z,6.70
2023-03-15T23:05:46.195Z,6.70
2023-03-15T23:08:13.202Z,6.70
2023-03-15T23:10:41.297Z,6.70
2023-03-15T23:13:08.137Z,6.70
2023-03-15T23:15:34.915Z,6.70
2023-03-15T23:18:01.863Z,6.70
2023-03-15T23:20:30.046Z,6.60
2023-03-15T23:22:57.242Z,6.60
2023-03-15T23:25:27.505Z,6.60
2023-03-15T23:27:54.581Z,6.60
2023-03-15T23:30:21.457Z,6.50
2023-03-15T23:32:49.087Z,6.50
2023-03-15T23:35:16.259Z,6.50
2023-03-15T23:37:43.055Z,6.50
2023-03-15T23:40:11.623Z,6.40
2023-03-15T23:42:38.692Z,6.40
2023-03-15T23:45:06.154Z,6.40
2023-03-15T23:47:32.910Z,6.40
2023-03-15T23:49:59.670Z,6.50
2023-03-15T23:52:26.416Z,6.50
2023-03-15T23:54:53.945Z,6.40
2023-03-15T23:57:21.305Z,6.40
2023-03-15T23:59:48.445Z,6.40
